Colonial Heights, Tennessee
Current Conditions -  °F | °C
As of 4:41 AM on Friday 28 Nov 2014 (Local Time) from KTRI Reporting Station
Overcast Overcast  
Wind Chill: 24°   Ceiling: 2400
Heat Index: 29°   Visibility: 10mi
Dew Point: 22°   Wind: 5mph
Humidity: 75%   Direction: 230°SW
Pressure: 30.33"   Gusts: NA
Location:  36.4621°N, 82.5069°W
Report Text: KTRI 280941Z 23004KT 10SM BKN024 BKN028 OVC038 M02/M06 A3033 RMK AO2 T10171056
Loading
Personal Weather Stations






























Interactive Weather Map New forecast layout! Learn more

10-Day Weather Forecast

Advertisements
Track Severe Weather on mobile